KFLO

Florence Regional Airport

Florence, South Carolina, USA
METAR KFLO 161353Z 00000KT 7SM CLR 02/M01 A3031 RMK AO2 SLP264 T00221011
Observed Flight Rules
Dec-16 @ 13:53 UTC (an hour ago) Visual Flight Rules
Wind Visibility Clouds
Calm 7 miles
  • Clear skies
Temperatures Readings
Current 2°C / 36°F
Dewpoint -1°C / 30°F
Humidity 81%
Altimeter 30.31" Hg
Pressure 1026.4 hPa
Elevation 44
METAR KFLO 161353Z 00000KT 7SM CLR 02/M01 A3031 RMK AO2 SLP264 T00221011
Observed Flight Rules
Dec-16 @ 13:53 UTC
(an hour ago)
VFR
Wind Visibility
Calm 7 miles
Clouds
  • Clear skies
Temperature Dewpoint
2°C / 36°F -1°C / 30°F
Humidity Altimeter Pressure
81% 30.31" Hg 1026.4 hPa